sensor_id;sensor_type;location;lat;lon;timestamp;pressure;altitude;pressure_sealevel;temperature;humidity
54936;BME280;40838;50.676;7.838;2023-08-24T00:01:58;98593.25;;;15.41;100.00
54936;BME280;40838;50.676;7.838;2023-08-24T00:07:27;98590.00;;;15.49;100.00
54936;BME280;40838;50.676;7.838;2023-08-24T00:09:54;98587.94;;;15.36;100.00
54936;BME280;40838;50.676;7.838;2023-08-24T00:12:22;98583.50;;;15.16;100.00
54936;BME280;40838;50.676;7.838;2023-08-24T00:14:51;98590.06;;;14.79;100.00
54936;BME280;40838;50.676;7.838;2023-08-24T00:17:18;98594.25;;;14.90;100.00
54936;BME280;40838;50.676;7.838;2023-08-24T00:19:45;98582.25;;;15.03;100.00
54936;BME280;40838;50.676;7.838;2023-08-24T00:22:12;98584.38;;;15.01;100.00
54936;BME280;40838;50.676;7.838;2023-08-24T00:24:38;98589.78;;;14.81;100.00
54936;BME280;40838;50.676;7.838;2023-08-24T00:27:08;98587.63;;;14.72;100.00
54936;BME280;40838;50.676;7.838;2023-08-24T00:29:38;98589.50;;;14.67;100.00
54936;BME280;40838;50.676;7.838;2023-08-24T00:32:04;98582.06;;;14.64;100.00
54936;BME280;40838;50.676;7.838;2023-08-24T00:34:32;98579.41;;;14.64;100.00
54936;BME280;40838;50.676;7.838;2023-08-24T00:36:58;98576.47;;;14.65;100.00
54936;BME280;40838;50.676;7.838;2023-08-24T00:39:25;98574.66;;;14.40;100.00
54936;BME280;40838;50.676;7.838;2023-08-24T00:41:52;98576.72;;;14.69;100.00
54936;BME280;40838;50.676;7.838;2023-08-24T00:44:20;98586.59;;;14.68;100.00
54936;BME280;40838;50.676;7.838;2023-08-24T00:46:48;98587.13;;;14.65;100.00
54936;BME280;40838;50.676;7.838;2023-08-24T00:49:17;98591.69;;;14.65;100.00
54936;BME280;40838;50.676;7.838;2023-08-24T00:51:45;98584.75;;;14.79;100.00
54936;BME280;40838;50.676;7.838;2023-08-24T00:54:13;98576.72;;;14.69;100.00
54936;BME280;40838;50.676;7.838;2023-08-24T00:56:40;98588.75;;;14.76;100.00
54936;BME280;40838;50.676;7.838;2023-08-24T00:59:07;98589.69;;;15.01;100.00
54936;BME280;40838;50.676;7.838;2023-08-24T01:01:34;98585.94;;;15.07;100.00
54936;BME280;40838;50.676;7.838;2023-08-24T01:04:03;98589.69;;;15.01;100.00
54936;BME280;40838;50.676;7.838;2023-08-24T01:06:30;98595.03;;;14.96;100.00
54936;BME280;40838;50.676;7.838;2023-08-24T01:08:55;98591.00;;;15.09;100.00
54936;BME280;40838;50.676;7.838;2023-08-24T01:14:21;98580.06;;;15.10;100.00
54936;BME280;40838;50.676;7.838;2023-08-24T01:16:53;98585.63;;;15.14;100.00
54936;BME280;40838;50.676;7.838;2023-08-24T01:19:34;98576.69;;;14.84;100.00
54936;BME280;40838;50.676;7.838;2023-08-24T01:22:07;98580.97;;;14.70;100.00
54936;BME280;40838;50.676;7.838;2023-08-24T01:24:39;98570.56;;;14.89;100.00
54936;BME280;40838;50.676;7.838;2023-08-24T01:27:09;98575.66;;;14.75;100.00
54936;BME280;40838;50.676;7.838;2023-08-24T01:29:37;98560.81;;;14.48;100.00
54936;BME280;40838;50.676;7.838;2023-08-24T01:32:09;98560.81;;;14.43;100.00
54936;BME280;40838;50.676;7.838;2023-08-24T01:34:36;98565.09;;;14.44;100.00
54936;BME280;40838;50.676;7.838;2023-08-24T01:37:03;98565.34;;;14.43;100.00
54936;BME280;40838;50.676;7.838;2023-08-24T01:39:52;98564.28;;;14.44;100.00
54936;BME280;40838;50.676;7.838;2023-08-24T01:42:26;98554.94;;;14.46;100.00
54936;BME280;40838;50.676;7.838;2023-08-24T01:44:58;98560.56;;;14.45;100.00
54936;BME280;40838;50.676;7.838;2023-08-24T01:47:30;98557.34;;;14.43;100.00
54936;BME280;40838;50.676;7.838;2023-08-24T01:49:57;98560.78;;;14.59;100.00
54936;BME280;40838;50.676;7.838;2023-08-24T01:52:24;98563.47;;;14.59;100.00
54936;BME280;40838;50.676;7.838;2023-08-24T01:54:51;98561.34;;;14.40;100.00
54936;BME280;40838;50.676;7.838;2023-08-24T01:57:18;98561.09;;;14.42;100.00
54936;BME280;40838;50.676;7.838;2023-08-24T01:59:49;98555.78;;;14.31;100.00
54936;BME280;40838;50.676;7.838;2023-08-24T02:02:16;98553.66;;;14.28;100.00
54936;BME280;40838;50.676;7.838;2023-08-24T02:04:43;98555.25;;;14.35;100.00
54936;BME280;40838;50.676;7.838;2023-08-24T02:07:09;98550.16;;;14.48;100.00
54936;BME280;40838;50.676;7.838;2023-08-24T02:09:36;98541.59;;;14.62;100.00
54936;BME280;40838;50.676;7.838;2023-08-24T02:12:03;98527.16;;;14.73;100.00
54936;BME280;40838;50.676;7.838;2023-08-24T02:14:32;98526.88;;;14.85;100.00
54936;BME280;40838;50.676;7.838;2023-08-24T02:17:00;98529.59;;;14.64;100.00
54936;BME280;40838;50.676;7.838;2023-08-24T02:19:35;98525.03;;;14.75;100.00
54936;BME280;40838;50.676;7.838;2023-08-24T02:22:02;98519.66;;;14.90;100.00
54936;BME280;40838;50.676;7.838;2023-08-24T02:24:29;98523.94;;;14.86;100.00
54936;BME280;40838;50.676;7.838;2023-08-24T02:26:56;98529.81;;;14.83;100.00
54936;BME280;40838;50.676;7.838;2023-08-24T02:29:23;98526.41;;;14.67;100.00
54936;BME280;40838;50.676;7.838;2023-08-24T02:31:49;98513.53;;;14.85;100.00
54936;BME280;40838;50.676;7.838;2023-08-24T02:34:18;98517.25;;;14.94;100.00
54936;BME280;40838;50.676;7.838;2023-08-24T02:36:45;98511.31;;;15.02;100.00
54936;BME280;40838;50.676;7.838;2023-08-24T02:39:12;98506.91;;;15.32;100.00
54936;BME280;40838;50.676;7.838;2023-08-24T02:41:40;98507.03;;;15.45;100.00
54936;BME280;40838;50.676;7.838;2023-08-24T02:44:08;98502.84;;;15.34;100.00
54936;BME280;40838;50.676;7.838;2023-08-24T02:46:37;98497.63;;;15.58;100.00
54936;BME280;40838;50.676;7.838;2023-08-24T02:49:03;98499.13;;;15.69;100.00
54936;BME280;40838;50.676;7.838;2023-08-24T02:51:32;98487.56;;;15.84;100.00
54936;BME280;40838;50.676;7.838;2023-08-24T02:53:58;98490.47;;;15.88;100.00
54936;BME280;40838;50.676;7.838;2023-08-24T02:56:25;98488.53;;;15.94;100.00
54936;BME280;40838;50.676;7.838;2023-08-24T02:58:53;98488.41;;;15.80;100.00
54936;BME280;40838;50.676;7.838;2023-08-24T03:01:20;98485.34;;;15.92;100.00
54936;BME280;40838;50.676;7.838;2023-08-24T03:03:50;98477.38;;;15.86;100.00
54936;BME280;40838;50.676;7.838;2023-08-24T03:06:16;98478.34;;;15.96;100.00
54936;BME280;40838;50.676;7.838;2023-08-24T03:08:45;98472.00;;;15.92;100.00
54936;BME280;40838;50.676;7.838;2023-08-24T03:11:12;98474.78;;;15.76;100.00
54936;BME280;40838;50.676;7.838;2023-08-24T03:13:39;98480.72;;;15.68;100.00
54936;BME280;40838;50.676;7.838;2023-08-24T03:16:07;98490.31;;;15.69;100.00
54936;BME280;40838;50.676;7.838;2023-08-24T03:18:35;98489.59;;;15.29;100.00
54936;BME280;40838;50.676;7.838;2023-08-24T03:21:03;98477.34;;;15.23;100.00
54936;BME280;40838;50.676;7.838;2023-08-24T03:23:32;98472.53;;;15.25;100.00
54936;BME280;40838;50.676;7.838;2023-08-24T03:26:01;98484.94;;;15.06;100.00
54936;BME280;40838;50.676;7.838;2023-08-24T03:28:28;98484.88;;;15.11;100.00
54936;BME280;40838;50.676;7.838;2023-08-24T03:30:55;98481.66;;;15.14;100.00
54936;BME280;40838;50.676;7.838;2023-08-24T03:33:22;98476.41;;;15.04;100.00
54936;BME280;40838;50.676;7.838;2023-08-24T03:35:49;98471.66;;;14.95;100.00
54936;BME280;40838;50.676;7.838;2023-08-24T03:38:16;98471.06;;;15.09;100.00
54936;BME280;40838;50.676;7.838;2023-08-24T03:40:42;98473.19;;;15.07;100.00
54936;BME280;40838;50.676;7.838;2023-08-24T03:43:11;98467.94;;;14.96;100.00
54936;BME280;40838;50.676;7.838;2023-08-24T03:45:38;98464.69;;;14.45;100.00
54936;BME280;40838;50.676;7.838;2023-08-24T03:48:07;98453.97;;;14.55;100.00
54936;BME280;40838;50.676;7.838;2023-08-24T03:50:33;98442.16;;;14.82;100.00
54936;BME280;40838;50.676;7.838;2023-08-24T03:53:00;98439.13;;;14.93;100.00
54936;BME280;40838;50.676;7.838;2023-08-24T03:55:27;98434.66;;;14.89;100.00
54936;BME280;40838;50.676;7.838;2023-08-24T03:57:54;98441.56;;;14.90;100.00
54936;BME280;40838;50.676;7.838;2023-08-24T04:00:25;98436.44;;;14.98;100.00
54936;BME280;40838;50.676;7.838;2023-08-24T04:02:52;98437.59;;;15.27;100.00
54936;BME280;40838;50.676;7.838;2023-08-24T04:05:23;98446.75;;;15.10;100.00
54936;BME280;40838;50.676;7.838;2023-08-24T04:07:52;98444.75;;;14.97;100.00
54936;BME280;40838;50.676;7.838;2023-08-24T04:10:24;98449.00;;;14.98;100.00
54936;BME280;40838;50.676;7.838;2023-08-24T04:12:50;98462.41;;;14.83;100.00
54936;BME280;40838;50.676;7.838;2023-08-24T04:15:19;98481.38;;;14.76;100.00
54936;BME280;40838;50.676;7.838;2023-08-24T04:17:47;98489.59;;;14.80;100.00
54936;BME280;40838;50.676;7.838;2023-08-24T04:20:14;98503.72;;;14.80;100.00
54936;BME280;40838;50.676;7.838;2023-08-24T04:22:41;98509.31;;;14.73;100.00
54936;BME280;40838;50.676;7.838;2023-08-24T04:25:08;98528.72;;;14.89;100.00
54936;BME280;40838;50.676;7.838;2023-08-24T04:27:36;98539.63;;;14.93;100.00
54936;BME280;40838;50.676;7.838;2023-08-24T04:30:03;98554.03;;;14.92;100.00
54936;BME280;40838;50.676;7.838;2023-08-24T04:32:31;98560.75;;;14.79;100.00
54936;BME280;40838;50.676;7.838;2023-08-24T04:34:59;98582.03;;;14.84;100.00
54936;BME280;40838;50.676;7.838;2023-08-24T04:37:26;98581.47;;;14.97;100.00
54936;BME280;40838;50.676;7.838;2023-08-24T04:39:54;98570.78;;;15.03;100.00
54936;BME280;40838;50.676;7.838;2023-08-24T04:42:20;98578.22;;;15.06;100.00
54936;BME280;40838;50.676;7.838;2023-08-24T04:44:47;98588.84;;;15.11;100.00
54936;BME280;40838;50.676;7.838;2023-08-24T04:47:14;98592.91;;;15.03;100.00
54936;BME280;40838;50.676;7.838;2023-08-24T04:49:43;98595.50;;;15.18;100.00
54936;BME280;40838;50.676;7.838;2023-08-24T04:52:11;98583.47;;;15.26;100.00
54936;BME280;40838;50.676;7.838;2023-08-24T04:54:37;98584.88;;;15.08;100.00
54936;BME280;40838;50.676;7.838;2023-08-24T04:57:05;98592.34;;;15.06;100.00
54936;BME280;40838;50.676;7.838;2023-08-24T04:59:32;98587.16;;;15.30;100.00
54936;BME280;40838;50.676;7.838;2023-08-24T05:01:58;98599.81;;;15.09;100.00
54936;BME280;40838;50.676;7.838;2023-08-24T05:04:25;98597.53;;;14.82;100.00
54936;BME280;40838;50.676;7.838;2023-08-24T05:06:52;98605.47;;;14.87;100.00
54936;BME280;40838;50.676;7.838;2023-08-24T05:09:20;98597.94;;;15.10;100.00
54936;BME280;40838;50.676;7.838;2023-08-24T05:11:48;98589.41;;;15.08;100.00
54936;BME280;40838;50.676;7.838;2023-08-24T05:14:15;98584.50;;;15.25;100.00
54936;BME280;40838;50.676;7.838;2023-08-24T05:16:41;98584.78;;;15.29;100.00
54936;BME280;40838;50.676;7.838;2023-08-24T05:19:08;98586.59;;;15.38;100.00
54936;BME280;40838;50.676;7.838;2023-08-24T05:21:35;98581.13;;;15.59;100.00
54936;BME280;40838;50.676;7.838;2023-08-24T05:24:02;98588.03;;;15.65;100.00
54936;BME280;40838;50.676;7.838;2023-08-24T05:26:31;98590.72;;;15.60;100.00
54936;BME280;40838;50.676;7.838;2023-08-24T05:28:57;98586.69;;;15.67;100.00
54936;BME280;40838;50.676;7.838;2023-08-24T05:31:24;98586.34;;;15.79;100.00
54936;BME280;40838;50.676;7.838;2023-08-24T05:33:51;98583.91;;;15.83;100.00
54936;BME280;40838;50.676;7.838;2023-08-24T05:36:17;98586.53;;;16.22;100.00
54936;BME280;40838;50.676;7.838;2023-08-24T05:38:44;98591.31;;;16.25;100.00
54936;BME280;40838;50.676;7.838;2023-08-24T05:41:12;98590.03;;;16.18;100.00
54936;BME280;40838;50.676;7.838;2023-08-24T05:43:40;98595.75;;;16.06;100.00
54936;BME280;40838;50.676;7.838;2023-08-24T05:46:07;98587.25;;;15.99;100.00
54936;BME280;40838;50.676;7.838;2023-08-24T05:48:34;98580.34;;;15.93;100.00
54936;BME280;40838;50.676;7.838;2023-08-24T05:51:00;98552.28;;;16.00;100.00
54936;BME280;40838;50.676;7.838;2023-08-24T05:53:27;98525.94;;;15.88;100.00
54936;BME280;40838;50.676;7.838;2023-08-24T05:55:57;98515.31;;;15.83;100.00
54936;BME280;40838;50.676;7.838;2023-08-24T05:58:24;98509.97;;;15.83;100.00
54936;BME280;40838;50.676;7.838;2023-08-24T06:00:57;98488.84;;;15.87;100.00
54936;BME280;40838;50.676;7.838;2023-08-24T06:03:24;98480.13;;;15.76;100.00
54936;BME280;40838;50.676;7.838;2023-08-24T06:05:51;98485.72;;;15.75;100.00
54936;BME280;40838;50.676;7.838;2023-08-24T06:08:18;98471.03;;;15.77;100.00
54936;BME280;40838;50.676;7.838;2023-08-24T06:10:44;98456.56;;;15.88;100.00
54936;BME280;40838;50.676;7.838;2023-08-24T06:13:11;98471.97;;;15.97;100.00
54936;BME280;40838;50.676;7.838;2023-08-24T06:15:37;98466.50;;;16.07;100.00
54936;BME280;40838;50.676;7.838;2023-08-24T06:18:06;98463.97;;;16.21;100.00
54936;BME280;40838;50.676;7.838;2023-08-24T06:20:32;98469.75;;;16.04;100.00
54936;BME280;40838;50.676;7.838;2023-08-24T06:22:59;98459.13;;;16.47;100.00
54936;BME280;40838;50.676;7.838;2023-08-24T06:25:27;98442.25;;;16.70;100.00
54936;BME280;40838;50.676;7.838;2023-08-24T06:27:54;98422.59;;;16.61;100.00
54936;BME280;40838;50.676;7.838;2023-08-24T06:30:21;98408.41;;;16.85;100.00
54936;BME280;40838;50.676;7.838;2023-08-24T06:32:48;98413.69;;;16.90;100.00
54936;BME280;40838;50.676;7.838;2023-08-24T06:35:17;98387.88;;;16.80;100.00
54936;BME280;40838;50.676;7.838;2023-08-24T06:37:44;98381.56;;;17.09;100.00
54936;BME280;40838;50.676;7.838;2023-08-24T06:40:11;98388.63;;;17.18;100.00
54936;BME280;40838;50.676;7.838;2023-08-24T06:42:38;98386.06;;;17.27;100.00
54936;BME280;40838;50.676;7.838;2023-08-24T06:45:06;98390.69;;;17.40;100.00
54936;BME280;40838;50.676;7.838;2023-08-24T06:47:35;98386.53;;;17.48;100.00
54936;BME280;40838;50.676;7.838;2023-08-24T06:50:02;98387.56;;;18.35;100.00
54936;BME280;40838;50.676;7.838;2023-08-24T06:52:30;98393.69;;;18.49;100.00
54936;BME280;40838;50.676;7.838;2023-08-24T06:54:57;98383.09;;;18.58;100.00
54936;BME280;40838;50.676;7.838;2023-08-24T06:57:24;98380.56;;;19.20;100.00
54936;BME280;40838;50.676;7.838;2023-08-24T06:59:51;98377.91;;;19.83;100.00
54936;BME280;40838;50.676;7.838;2023-08-24T07:02:18;98388.09;;;19.63;100.00
54936;BME280;40838;50.676;7.838;2023-08-24T07:04:45;98377.63;;;20.41;100.00
54936;BME280;40838;50.676;7.838;2023-08-24T07:07:11;98375.13;;;20.80;100.00
54936;BME280;40838;50.676;7.838;2023-08-24T07:09:39;98377.16;;;20.83;100.00
54936;BME280;40838;50.676;7.838;2023-08-24T07:12:07;98374.59;;;21.86;100.00
54936;BME280;40838;50.676;7.838;2023-08-24T07:14:35;98373.78;;;21.94;100.00
54936;BME280;40838;50.676;7.838;2023-08-24T07:17:02;98365.34;;;23.09;100.00
54936;BME280;40838;50.676;7.838;2023-08-24T07:19:29;98364.03;;;22.82;100.00
54936;BME280;40838;50.676;7.838;2023-08-24T07:21:56;98359.31;;;23.70;100.00
54936;BME280;40838;50.676;7.838;2023-08-24T07:24:23;98358.97;;;24.45;100.00
54936;BME280;40838;50.676;7.838;2023-08-24T07:26:55;98355.31;;;23.88;100.00
54936;BME280;40838;50.676;7.838;2023-08-24T07:29:22;98351.03;;;23.29;100.00
54936;BME280;40838;50.676;7.838;2023-08-24T07:31:51;98344.22;;;23.44;100.00
54936;BME280;40838;50.676;7.838;2023-08-24T07:34:18;98337.41;;;23.84;100.00
54936;BME280;40838;50.676;7.838;2023-08-24T07:36:49;98341.13;;;24.44;100.00
54936;BME280;40838;50.676;7.838;2023-08-24T07:39:16;98352.22;;;24.39;100.00
54936;BME280;40838;50.676;7.838;2023-08-24T07:41:44;98352.75;;;24.85;100.00
54936;BME280;40838;50.676;7.838;2023-08-24T07:44:12;98349.47;;;22.95;100.00
54936;BME280;40838;50.676;7.838;2023-08-24T07:46:39;98351.53;;;23.10;100.00
54936;BME280;40838;50.676;7.838;2023-08-24T07:49:06;98348.06;;;26.05;100.00
54936;BME280;40838;50.676;7.838;2023-08-24T07:51:33;98340.75;;;25.26;100.00
54936;BME280;40838;50.676;7.838;2023-08-24T07:54:00;98338.84;;;24.71;100.00
54936;BME280;40838;50.676;7.838;2023-08-24T07:56:26;98336.91;;;25.27;100.00
54936;BME280;40838;50.676;7.838;2023-08-24T07:58:53;98336.66;;;25.04;100.00
54936;BME280;40838;50.676;7.838;2023-08-24T08:01:21;98330.81;;;25.02;100.00
54936;BME280;40838;50.676;7.838;2023-08-24T08:03:48;98319.06;;;25.58;98.18
54936;BME280;40838;50.676;7.838;2023-08-24T08:06:15;98316.53;;;25.49;99.43
54936;BME280;40838;50.676;7.838;2023-08-24T08:08:41;98323.91;;;25.33;99.50
54936;BME280;40838;50.676;7.838;2023-08-24T08:11:10;98324.59;;;25.46;97.41
54936;BME280;40838;50.676;7.838;2023-08-24T08:13:36;98325.91;;;25.36;98.83
54936;BME280;40838;50.676;7.838;2023-08-24T08:16:03;98321.19;;;25.49;96.08
54936;BME280;40838;50.676;7.838;2023-08-24T08:18:33;98318.72;;;25.75;97.24
54936;BME280;40838;50.676;7.838;2023-08-24T08:21:00;98318.22;;;25.54;98.45
54936;BME280;40838;50.676;7.838;2023-08-24T08:23:27;98331.34;;;26.93;92.44
54936;BME280;40838;50.676;7.838;2023-08-24T08:25:54;98315.31;;;25.63;95.31
54936;BME280;40838;50.676;7.838;2023-08-24T08:28:20;98320.50;;;25.36;95.36
54936;BME280;40838;50.676;7.838;2023-08-24T08:30:48;98314.28;;;24.91;95.24
54936;BME280;40838;50.676;7.838;2023-08-24T08:33:15;98316.09;;;25.95;90.77
54936;BME280;40838;50.676;7.838;2023-08-24T08:35:43;98330.94;;;26.36;86.46
54936;BME280;40838;50.676;7.838;2023-08-24T08:38:10;98323.47;;;25.78;90.98
54936;BME280;40838;50.676;7.838;2023-08-24T08:40:37;98325.22;;;25.23;92.90
54936;BME280;40838;50.676;7.838;2023-08-24T08:43:05;98317.59;;;26.27;89.97
54936;BME280;40838;50.676;7.838;2023-08-24T08:45:32;98307.00;;;25.71;91.40
54936;BME280;40838;50.676;7.838;2023-08-24T08:48:00;98311.47;;;25.64;93.01
54936;BME280;40838;50.676;7.838;2023-08-24T08:50:27;98301.59;;;25.87;92.89
54936;BME280;40838;50.676;7.838;2023-08-24T08:52:55;98298.09;;;26.22;86.73
54936;BME280;40838;50.676;7.838;2023-08-24T08:55:24;98296.78;;;26.16;89.69
54936;BME280;40838;50.676;7.838;2023-08-24T08:57:53;98298.97;;;26.45;88.56
54936;BME280;40838;50.676;7.838;2023-08-24T09:00:23;98284.19;;;26.62;88.98
54936;BME280;40838;50.676;7.838;2023-08-24T09:02:52;98279.81;;;26.19;86.02
54936;BME280;40838;50.676;7.838;2023-08-24T09:05:20;98288.66;;;25.96;87.10
54936;BME280;40838;50.676;7.838;2023-08-24T09:07:48;98275.38;;;26.88;81.47
54936;BME280;40838;50.676;7.838;2023-08-24T09:10:17;98276.94;;;26.89;82.81
54936;BME280;40838;50.676;7.838;2023-08-24T09:12:43;98274.50;;;26.61;83.43
54936;BME280;40838;50.676;7.838;2023-08-24T09:15:10;98277.97;;;26.23;83.18
54936;BME280;40838;50.676;7.838;2023-08-24T09:17:42;98260.31;;;25.78;82.76
54936;BME280;40838;50.676;7.838;2023-08-24T09:20:09;98263.13;;;25.66;85.02
54936;BME280;40838;50.676;7.838;2023-08-24T09:22:37;98267.66;;;25.77;84.40
54936;BME280;40838;50.676;7.838;2023-08-24T09:25:08;98251.50;;;25.65;85.72
54936;BME280;40838;50.676;7.838;2023-08-24T09:27:37;98252.31;;;25.34;84.54
54936;BME280;40838;50.676;7.838;2023-08-24T09:30:05;98253.09;;;25.82;80.57
54936;BME280;40838;50.676;7.838;2023-08-24T09:32:32;98227.19;;;26.04;83.39
54936;BME280;40838;50.676;7.838;2023-08-24T09:35:02;98227.31;;;25.56;81.95
54936;BME280;40838;50.676;7.838;2023-08-24T09:37:32;98232.06;;;26.14;86.37
54936;BME280;40838;50.676;7.838;2023-08-24T09:40:04;98230.47;;;25.78;82.79
54936;BME280;40838;50.676;7.838;2023-08-24T09:42:38;98215.72;;;25.91;79.88
54936;BME280;40838;50.676;7.838;2023-08-24T09:45:08;98211.56;;;25.97;82.01
54936;BME280;40838;50.676;7.838;2023-08-24T09:47:37;98203.56;;;25.69;81.87
54936;BME280;40838;50.676;7.838;2023-08-24T09:50:05;98183.75;;;25.65;83.24
54936;BME280;40838;50.676;7.838;2023-08-24T09:52:35;98194.22;;;26.02;79.70
54936;BME280;40838;50.676;7.838;2023-08-24T09:55:06;98189.94;;;25.30;83.71
54936;BME280;40838;50.676;7.838;2023-08-24T09:57:38;98193.81;;;26.00;78.49
54936;BME280;40838;50.676;7.838;2023-08-24T10:00:06;98182.44;;;26.14;80.62
54936;BME280;40838;50.676;7.838;2023-08-24T10:02:37;98182.47;;;26.76;76.90
54936;BME280;40838;50.676;7.838;2023-08-24T10:05:08;98184.38;;;26.98;77.53
54936;BME280;40838;50.676;7.838;2023-08-24T10:07:37;98195.69;;;25.45;81.60
54936;BME280;40838;50.676;7.838;2023-08-24T10:10:08;98184.88;;;25.80;80.40
54936;BME280;40838;50.676;7.838;2023-08-24T10:12:42;98183.44;;;25.51;81.58
54936;BME280;40838;50.676;7.838;2023-08-24T10:15:11;98181.22;;;25.21;80.84
54936;BME280;40838;50.676;7.838;2023-08-24T10:17:39;98184.00;;;25.76;80.76
54936;BME280;40838;50.676;7.838;2023-08-24T10:20:07;98190.09;;;25.73;82.00
54936;BME280;40838;50.676;7.838;2023-08-24T10:22:36;98206.34;;;25.38;85.51
54936;BME280;40838;50.676;7.838;2023-08-24T10:25:03;98218.47;;;24.80;85.64
54936;BME280;40838;50.676;7.838;2023-08-24T10:27:30;98219.88;;;25.53;84.92
54936;BME280;40838;50.676;7.838;2023-08-24T10:29:58;98221.81;;;25.53;85.18
54936;BME280;40838;50.676;7.838;2023-08-24T10:32:26;98231.94;;;25.40;86.62
54936;BME280;40838;50.676;7.838;2023-08-24T10:34:53;98234.09;;;24.71;89.05
54936;BME280;40838;50.676;7.838;2023-08-24T10:37:25;98237.97;;;25.02;89.78
54936;BME280;40838;50.676;7.838;2023-08-24T10:39:52;98235.22;;;24.42;91.53
54936;BME280;40838;50.676;7.838;2023-08-24T10:42:19;98228.19;;;25.29;88.84
54936;BME280;40838;50.676;7.838;2023-08-24T10:44:47;98230.34;;;24.48;93.52
54936;BME280;40838;50.676;7.838;2023-08-24T10:47:19;98239.03;;;24.13;95.63
54936;BME280;40838;50.676;7.838;2023-08-24T10:49:57;98239.13;;;24.16;95.95
54936;BME280;40838;50.676;7.838;2023-08-24T10:52:25;98229.69;;;24.38;95.02
54936;BME280;40838;50.676;7.838;2023-08-24T10:54:56;98239.81;;;24.13;96.56
54936;BME280;40838;50.676;7.838;2023-08-24T10:57:25;98230.06;;;24.65;93.92
54936;BME280;40838;50.676;7.838;2023-08-24T11:00:06;98232.66;;;24.61;96.19
54936;BME280;40838;50.676;7.838;2023-08-24T11:02:53;98227.34;;;25.25;91.61
54936;BME280;40838;50.676;7.838;2023-08-24T11:05:21;98232.31;;;25.39;94.35
54936;BME280;40838;50.676;7.838;2023-08-24T11:07:53;98233.50;;;25.57;92.59
54936;BME280;40838;50.676;7.838;2023-08-24T11:10:20;98235.38;;;25.21;94.97
54936;BME280;40838;50.676;7.838;2023-08-24T11:13:06;98239.16;;;25.84;93.31
54936;BME280;40838;50.676;7.838;2023-08-24T11:15:35;98220.22;;;26.03;94.72
54936;BME280;40838;50.676;7.838;2023-08-24T11:18:21;98215.97;;;25.86;93.33
54936;BME280;40838;50.676;7.838;2023-08-24T11:20:50;98216.31;;;25.85;90.70
54936;BME280;40838;50.676;7.838;2023-08-24T11:23:17;98210.13;;;25.84;89.82
54936;BME280;40838;50.676;7.838;2023-08-24T11:25:45;98198.94;;;25.86;92.66
54936;BME280;40838;50.676;7.838;2023-08-24T11:28:16;98185.31;;;25.82;92.82
54936;BME280;40838;50.676;7.838;2023-08-24T11:30:44;98175.50;;;25.77;94.34
54936;BME280;40838;50.676;7.838;2023-08-24T11:33:11;98181.88;;;26.04;90.06
54936;BME280;40838;50.676;7.838;2023-08-24T11:35:42;98185.50;;;25.93;92.01
54936;BME280;40838;50.676;7.838;2023-08-24T11:38:09;98188.94;;;25.54;92.87
54936;BME280;40838;50.676;7.838;2023-08-24T11:40:35;98181.56;;;25.71;94.55
54936;BME280;40838;50.676;7.838;2023-08-24T11:43:03;98173.16;;;26.54;88.53
54936;BME280;40838;50.676;7.838;2023-08-24T11:45:30;98190.38;;;26.61;86.47
54936;BME280;40838;50.676;7.838;2023-08-24T11:47:58;98186.81;;;25.79;90.82
54936;BME280;40838;50.676;7.838;2023-08-24T11:50:25;98190.47;;;26.26;90.58
54936;BME280;40838;50.676;7.838;2023-08-24T11:52:54;98183.53;;;26.71;87.37
54936;BME280;40838;50.676;7.838;2023-08-24T11:55:21;98176.75;;;25.64;93.35
54936;BME280;40838;50.676;7.838;2023-08-24T11:57:48;98165.09;;;25.99;91.71
54936;BME280;40838;50.676;7.838;2023-08-24T12:00:15;98151.69;;;25.87;92.16
54936;BME280;40838;50.676;7.838;2023-08-24T12:02:42;98166.09;;;26.10;91.21
54936;BME280;40838;50.676;7.838;2023-08-24T12:05:20;98155.41;;;25.98;93.59
54936;BME280;40838;50.676;7.838;2023-08-24T12:07:47;98161.31;;;25.49;96.14
54936;BME280;40838;50.676;7.838;2023-08-24T12:10:16;98153.25;;;26.46;90.33
54936;BME280;40838;50.676;7.838;2023-08-24T12:12:42;98153.38;;;25.56;94.92
54936;BME280;40838;50.676;7.838;2023-08-24T12:15:15;98151.75;;;26.29;90.90
54936;BME280;40838;50.676;7.838;2023-08-24T12:17:43;98170.81;;;26.13;91.87
54936;BME280;40838;50.676;7.838;2023-08-24T12:20:18;98182.66;;;26.05;93.79
54936;BME280;40838;50.676;7.838;2023-08-24T12:22:49;98191.75;;;25.10;92.26
54936;BME280;40838;50.676;7.838;2023-08-24T12:25:21;98200.41;;;25.48;93.32
54936;BME280;40838;50.676;7.838;2023-08-24T12:27:49;98202.94;;;25.92;89.34
54936;BME280;40838;50.676;7.838;2023-08-24T12:30:16;98203.38;;;26.13;88.93
54936;BME280;40838;50.676;7.838;2023-08-24T12:32:44;98204.91;;;26.73;87.18
54936;BME280;40838;50.676;7.838;2023-08-24T12:35:11;98221.13;;;25.91;89.47
54936;BME280;40838;50.676;7.838;2023-08-24T12:37:38;98225.09;;;26.52;88.55
54936;BME280;40838;50.676;7.838;2023-08-24T12:40:06;98225.00;;;26.29;84.51
54936;BME280;40838;50.676;7.838;2023-08-24T12:42:34;98240.72;;;25.85;86.58
54936;BME280;40838;50.676;7.838;2023-08-24T12:45:01;98239.81;;;25.45;91.33
54936;BME280;40838;50.676;7.838;2023-08-24T12:47:29;98243.53;;;25.88;89.65
54936;BME280;40838;50.676;7.838;2023-08-24T12:49:56;98259.09;;;25.91;89.37
54936;BME280;40838;50.676;7.838;2023-08-24T12:52:23;98249.03;;;25.92;91.28
54936;BME280;40838;50.676;7.838;2023-08-24T12:54:50;98244.72;;;26.45;97.25
54936;BME280;40838;50.676;7.838;2023-08-24T12:57:16;98241.88;;;26.81;88.05
54936;BME280;40838;50.676;7.838;2023-08-24T12:59:45;98246.16;;;25.85;92.13
54936;BME280;40838;50.676;7.838;2023-08-24T13:02:12;98254.63;;;26.18;93.54
54936;BME280;40838;50.676;7.838;2023-08-24T13:04:39;98251.53;;;26.00;92.96
54936;BME280;40838;50.676;7.838;2023-08-24T13:07:05;98246.47;;;25.48;96.33